Vasa, Minnesota
Current Conditions -  °F | °C
As of 12:13 AM on Thursday 23 Oct 2014 (Local Time) from KSYN Reporting Station
Scattered Clouds Scattered Clouds  
Wind Chill: 55°   Ceiling: Unl
Heat Index: 55°   Visibility: 10mi
Dew Point: 41°   Wind: 12mph
Humidity: 58%   Direction: 190°S
Pressure: 30.02"   Gusts: 17mph
Location:  44.6055°N, 92.7163°W
Report Text: KSYN 230513Z AUTO 19010G15KT 10SM SCT075 SCT120 13/05 A3002 RMK AO2 T01280048
Loading
Personal Weather Stations






























Interactive Weather Map
Tropical Storm Tracking
New forecast layout! Learn more

10-Day Weather Forecast

Advertisements
Track Severe Weather on mobile